createdAt,value
2019-05-03T00:01:41.961Z,15.53
2019-05-03T00:04:08.790Z,16.87
2019-05-03T00:06:35.647Z,14.73
2019-05-03T00:09:07.611Z,15.50
2019-05-03T00:11:34.522Z,12.93
2019-05-03T00:14:01.713Z,13.53
2019-05-03T00:16:48.582Z,12.80
2019-05-03T00:19:15.356Z,13.80
2019-05-03T00:21:42.224Z,12.43
2019-05-03T00:24:09.096Z,13.20
2019-05-03T00:26:35.810Z,14.30
2019-05-03T00:29:03.516Z,14.50
2019-05-03T00:31:31.900Z,13.27
2019-05-03T00:34:03.262Z,12.60
2019-05-03T00:36:34.688Z,13.53
2019-05-03T00:39:21.948Z,14.63
2019-05-03T00:41:49.739Z,14.37
2019-05-03T00:44:16.562Z,15.13
2019-05-03T00:46:45.225Z,13.90
2019-05-03T00:49:12.064Z,13.73
2019-05-03T00:51:38.722Z,15.03
2019-05-03T00:54:05.850Z,13.50
2019-05-03T00:56:32.637Z,14.27
2019-05-03T00:59:02.042Z,14.17
2019-05-03T01:01:28.358Z,13.70
2019-05-03T01:03:55.500Z,13.30
2019-05-03T01:06:22.416Z,13.03
2019-05-03T01:08:52.064Z,12.93
2019-05-03T01:11:18.810Z,12.27
2019-05-03T01:13:45.758Z,13.43
2019-05-03T01:16:14.376Z,13.33
2019-05-03T01:18:41.773Z,12.57
2019-05-03T01:21:08.822Z,13.43
2019-05-03T01:23:35.605Z,12.67
2019-05-03T01:26:02.589Z,13.40
2019-05-03T01:28:29.966Z,13.00
2019-05-03T01:30:57.103Z,13.43
2019-05-03T01:33:23.810Z,13.20
2019-05-03T01:35:51.880Z,13.00
2019-05-03T01:38:19.566Z,12.10
2019-05-03T01:40:46.566Z,13.57
2019-05-03T01:43:13.262Z,12.80
2019-05-03T01:45:39.944Z,13.53
2019-05-03T01:48:21.588Z,15.03
2019-05-03T01:51:11.801Z,15.43
2019-05-03T01:53:41.719Z,14.70
2019-05-03T01:56:08.478Z,15.33
2019-05-03T01:58:35.177Z,17.07
2019-05-03T02:01:04.234Z,15.00
2019-05-03T02:03:35.806Z,15.30
2019-05-03T02:06:02.816Z,16.03
2019-05-03T02:08:29.520Z,15.10
2019-05-03T02:10:58.262Z,15.57
2019-05-03T02:13:25.184Z,16.87
2019-05-03T02:15:52.901Z,16.10
2019-05-03T02:18:19.796Z,16.07
2019-05-03T02:20:46.678Z,16.10
2019-05-03T02:23:13.352Z,14.73
2019-05-03T02:25:41.852Z,14.93
2019-05-03T02:28:08.800Z,15.40
2019-05-03T02:30:35.470Z,15.33
2019-05-03T02:33:04.079Z,13.67
2019-05-03T02:35:33.178Z,15.60
2019-05-03T02:37:59.288Z,16.07
2019-05-03T02:40:25.975Z,14.37
2019-05-03T02:43:09.752Z,15.57
2019-05-03T02:45:56.933Z,14.60
2019-05-03T02:48:31.372Z,15.60
2019-05-03T02:50:58.125Z,14.50
2019-05-03T02:53:25.903Z,14.77
2019-05-03T02:55:55.919Z,15.57
2019-05-03T02:58:25.296Z,14.60
2019-05-03T03:01:02.339Z,13.97
2019-05-03T03:03:30.346Z,14.53
2019-05-03T03:05:59.872Z,14.97
2019-05-03T03:08:28.425Z,15.40
2019-05-03T03:11:06.265Z,15.60
2019-05-03T03:13:36.808Z,15.63
2019-05-03T03:16:07.095Z,16.17
2019-05-03T03:18:36.715Z,15.13
2019-05-03T03:21:10.167Z,18.07
2019-05-03T03:23:57.393Z,15.90
2019-05-03T03:26:37.396Z,16.27
2019-05-03T03:29:05.617Z,16.20
2019-05-03T03:31:48.710Z,15.43
2019-05-03T03:34:19.425Z,17.53
2019-05-03T03:37:00.729Z,17.87
2019-05-03T03:39:25.690Z,15.67
2019-05-03T03:41:52.526Z,15.63
2019-05-03T03:44:20.206Z,20.00
2019-05-03T03:46:50.608Z,19.23
2019-05-03T03:49:18.995Z,18.63
2019-05-03T03:51:52.136Z,18.73
2019-05-03T03:54:21.263Z,21.17
2019-05-03T03:57:03.253Z,21.53
2019-05-03T03:59:26.705Z,21.23
2019-05-03T04:01:55.122Z,20.33
2019-05-03T04:04:25.722Z,22.40
2019-05-03T04:06:51.965Z,20.70
2019-05-03T04:09:19.147Z,21.87
2019-05-03T04:11:46.521Z,20.40
2019-05-03T04:14:16.141Z,19.60
2019-05-03T04:17:01.299Z,20.50
2019-05-03T04:19:32.485Z,19.83
2019-05-03T04:22:05.866Z,20.13
2019-05-03T04:24:35.191Z,21.03
2019-05-03T04:27:17.966Z,22.63
2019-05-03T04:29:42.207Z,23.23
2019-05-03T04:35:05.411Z,24.03
2019-05-03T04:37:36.696Z,24.80
2019-05-03T04:40:07.571Z,23.10
2019-05-03T04:42:36.595Z,22.77
2019-05-03T04:45:08.868Z,22.60
2019-05-03T04:47:37.394Z,21.30
2019-05-03T04:50:07.241Z,23.07
2019-05-03T04:52:36.257Z,22.10
2019-05-03T04:55:06.851Z,22.03
2019-05-03T04:57:42.151Z,21.57
2019-05-03T05:00:11.771Z,22.13
2019-05-03T05:02:40.164Z,19.00
2019-05-03T05:05:08.580Z,19.77
2019-05-03T05:07:36.765Z,19.87
2019-05-03T05:10:07.481Z,16.83
2019-05-03T05:12:36.585Z,16.00
2019-05-03T05:15:06.542Z,18.67
2019-05-03T05:17:42.186Z,18.40
2019-05-03T05:20:14.407Z,17.33
2019-05-03T05:22:45.436Z,16.57
2019-05-03T05:25:18.616Z,14.90
2019-05-03T05:28:00.806Z,14.00
2019-05-03T05:30:35.308Z,13.80
2019-05-03T05:33:10.540Z,14.97
2019-05-03T05:35:38.834Z,14.60
2019-05-03T05:38:06.182Z,13.60
2019-05-03T05:40:34.760Z,14.37
2019-05-03T05:43:01.386Z,16.73
2019-05-03T05:45:27.925Z,14.73
2019-05-03T05:47:56.494Z,14.53
2019-05-03T05:50:25.446Z,15.10
2019-05-03T05:52:52.284Z,16.50
2019-05-03T05:55:25.254Z,16.30
2019-05-03T05:58:02.869Z,17.20
2019-05-03T06:00:25.805Z,16.73
2019-05-03T06:02:52.525Z,15.13
2019-05-03T06:05:19.240Z,14.97
2019-05-03T06:08:00.178Z,15.20
2019-05-03T06:10:45.131Z,15.43
2019-05-03T06:13:15.223Z,15.50
2019-05-03T06:15:55.939Z,17.83
2019-05-03T06:18:36.568Z,15.33
2019-05-03T06:21:15.435Z,16.90
2019-05-03T06:23:45.128Z,16.23
2019-05-03T06:26:31.000Z,15.33
2019-05-03T06:28:57.619Z,16.23
2019-05-03T06:31:26.502Z,16.17
2019-05-03T06:33:55.237Z,13.73
2019-05-03T06:36:24.373Z,15.37
2019-05-03T06:38:51.257Z,14.40
2019-05-03T06:41:17.903Z,14.60
2019-05-03T06:43:48.739Z,16.50
2019-05-03T06:46:18.156Z,14.73
2019-05-03T06:48:44.390Z,15.50
2019-05-03T06:51:17.218Z,15.27
2019-05-03T06:53:41.935Z,13.17
2019-05-03T06:56:09.921Z,13.60
2019-05-03T06:58:36.718Z,13.80
2019-05-03T07:01:05.413Z,13.57
2019-05-03T07:03:35.400Z,13.07
2019-05-03T07:06:32.611Z,14.10
2019-05-03T07:09:00.959Z,14.20
2019-05-03T07:11:29.406Z,13.03
2019-05-03T07:13:56.146Z,11.40
2019-05-03T07:16:25.147Z,14.20
2019-05-03T07:18:51.811Z,13.03
2019-05-03T07:21:18.508Z,13.60
2019-05-03T07:23:45.235Z,12.37
2019-05-03T07:26:12.069Z,13.53
2019-05-03T07:28:46.923Z,14.27
2019-05-03T07:31:07.270Z,12.47
2019-05-03T07:33:35.165Z,12.70
2019-05-03T07:36:02.711Z,12.00
2019-05-03T07:38:29.328Z,12.70
2019-05-03T07:40:56.175Z,11.30
2019-05-03T07:43:24.511Z,14.40
2019-05-03T07:45:51.496Z,11.10
2019-05-03T07:48:21.192Z,11.03
2019-05-03T07:50:47.845Z,12.57
2019-05-03T07:53:15.095Z,13.00
2019-05-03T07:55:49.559Z,10.63
2019-05-03T07:58:18.180Z,10.13
2019-05-03T08:00:44.902Z,11.30
2019-05-03T08:03:11.583Z,13.17
2019-05-03T08:05:38.447Z,11.67
2019-05-03T08:08:20.491Z,9.80
2019-05-03T08:10:47.817Z,10.63
2019-05-03T08:13:15.549Z,12.63
2019-05-03T08:15:46.559Z,14.37
2019-05-03T08:18:18.189Z,13.50
2019-05-03T08:20:46.670Z,12.07
2019-05-03T08:23:26.374Z,12.17
2019-05-03T08:25:51.019Z,13.13
2019-05-03T08:28:18.623Z,13.37
2019-05-03T08:30:54.271Z,12.40
2019-05-03T08:33:25.291Z,11.90
2019-05-03T08:35:53.014Z,13.87
2019-05-03T08:38:25.825Z,13.43
2019-05-03T08:40:54.770Z,14.60
2019-05-03T08:43:37.149Z,14.40
2019-05-03T08:46:07.428Z,16.53
2019-05-03T08:48:39.499Z,15.80
2019-05-03T08:51:06.852Z,14.30
2019-05-03T08:53:35.854Z,15.57
2019-05-03T08:56:02.588Z,14.70
2019-05-03T08:58:34.641Z,14.50
2019-05-03T09:01:02.286Z,13.83
2019-05-03T09:03:29.023Z,12.60
2019-05-03T09:05:56.444Z,13.33
2019-05-03T09:08:24.922Z,14.03
2019-05-03T09:10:56.277Z,12.97
2019-05-03T09:13:24.965Z,12.90
2019-05-03T09:15:55.272Z,12.57
2019-05-03T09:18:22.894Z,11.17
2019-05-03T09:20:49.589Z,10.83
2019-05-03T09:23:16.385Z,9.90
2019-05-03T09:25:45.672Z,9.77
2019-05-03T09:28:11.983Z,9.53
2019-05-03T09:30:38.806Z,8.40
2019-05-03T09:33:08.831Z,9.57
2019-05-03T09:35:36.074Z,8.63
2019-05-03T09:38:05.705Z,7.50
2019-05-03T09:40:35.040Z,7.90
2019-05-03T09:43:01.567Z,6.87
2019-05-03T09:45:28.433Z,7.73
2019-05-03T09:47:57.739Z,9.17
2019-05-03T09:50:24.683Z,7.80
2019-05-03T09:52:51.700Z,6.97
2019-05-03T09:55:27.431Z,6.93
2019-05-03T09:57:55.516Z,5.57
2019-05-03T10:00:25.384Z,5.20
2019-05-03T10:02:51.983Z,5.20
2019-05-03T10:05:20.324Z,5.83
2019-05-03T10:07:48.371Z,4.10
2019-05-03T10:10:17.891Z,2.90
2019-05-03T10:12:47.509Z,3.13
2019-05-03T10:15:37.589Z,3.20
2019-05-03T10:18:11.139Z,4.67
2019-05-03T10:20:40.635Z,5.27
2019-05-03T10:23:27.764Z,4.37
2019-05-03T10:25:55.198Z,4.37
2019-05-03T10:28:21.979Z,3.53
2019-05-03T10:30:48.688Z,3.90
2019-05-03T10:33:20.164Z,3.40
2019-05-03T10:35:46.876Z,4.03
2019-05-03T10:38:15.135Z,3.87
2019-05-03T10:40:58.459Z,3.47
2019-05-03T10:43:25.322Z,3.53
2019-05-03T10:45:51.970Z,4.20
2019-05-03T10:48:21.596Z,3.93
2019-05-03T10:50:50.926Z,4.23
2019-05-03T10:53:18.878Z,4.77
2019-05-03T10:55:56.308Z,3.73
2019-05-03T10:58:24.945Z,4.10
2019-05-03T11:00:54.206Z,5.33
2019-05-03T11:03:21.795Z,5.93
2019-05-03T11:05:49.011Z,5.03
2019-05-03T11:08:17.680Z,6.23
2019-05-03T11:10:44.608Z,6.00
2019-05-03T11:13:11.359Z,5.17
2019-05-03T11:15:38.159Z,7.17
2019-05-03T11:18:06.127Z,6.23
2019-05-03T11:20:36.696Z,6.20
2019-05-03T11:23:05.861Z,8.30
2019-05-03T11:25:34.429Z,10.03
2019-05-03T11:28:04.854Z,9.67
2019-05-03T11:30:32.782Z,7.47
2019-05-03T11:33:01.318Z,11.00
2019-05-03T11:35:35.842Z,11.27
2019-05-03T11:38:07.520Z,9.73
2019-05-03T11:40:35.473Z,9.73
2019-05-03T11:43:04.623Z,10.10
2019-05-03T11:45:44.942Z,10.90
2019-05-03T11:48:15.580Z,10.37
2019-05-03T11:50:42.543Z,13.70
2019-05-03T11:53:09.238Z,12.20
2019-05-03T11:55:37.904Z,13.90
2019-05-03T11:58:08.689Z,14.73
2019-05-03T12:00:37.250Z,16.13
2019-05-03T12:03:06.055Z,18.63
2019-05-03T12:05:34.604Z,19.23
2019-05-03T12:08:01.370Z,18.20
2019-05-03T12:10:48.190Z,17.10
2019-05-03T12:13:00.492Z,15.77
2019-05-03T12:15:27.203Z,16.00
2019-05-03T12:17:59.398Z,17.43
2019-05-03T12:20:28.671Z,19.20
2019-05-03T12:22:55.289Z,17.93
2019-05-03T12:25:23.507Z,19.90
2019-05-03T12:27:51.171Z,17.40
2019-05-03T12:30:18.086Z,18.13
2019-05-03T12:32:45.984Z,19.17
2019-05-03T12:35:15.156Z,19.37
2019-05-03T12:37:41.288Z,17.90
2019-05-03T12:40:10.036Z,17.80
2019-05-03T12:42:36.696Z,18.87
2019-05-03T12:45:05.458Z,20.43
2019-05-03T12:47:32.120Z,19.93
2019-05-03T12:49:58.660Z,18.67
2019-05-03T12:52:26.777Z,20.73
2019-05-03T12:54:55.184Z,20.70
2019-05-03T12:57:24.823Z,19.33
2019-05-03T13:00:05.605Z,22.40
2019-05-03T13:02:40.494Z,22.80
2019-05-03T13:05:07.640Z,23.20
2019-05-03T13:07:36.280Z,22.27
2019-05-03T13:10:05.363Z,21.23
2019-05-03T13:12:34.795Z,21.87
2019-05-03T13:15:05.779Z,52.80
2019-05-03T13:17:35.835Z,19.27
2019-05-03T13:20:07.261Z,18.13
2019-05-03T13:22:35.050Z,17.67
2019-05-03T13:25:05.096Z,19.20
2019-05-03T13:27:31.815Z,18.53
2019-05-03T13:30:01.118Z,16.77
2019-05-03T13:32:28.439Z,16.20
2019-05-03T13:34:55.409Z,15.63
2019-05-03T13:37:22.019Z,15.63
2019-05-03T13:39:48.668Z,17.70
2019-05-03T13:42:15.285Z,19.80
2019-05-03T13:44:42.041Z,15.87
2019-05-03T13:47:08.744Z,17.60
2019-05-03T13:49:35.541Z,18.23
2019-05-03T13:52:02.408Z,16.37
2019-05-03T13:54:29.341Z,17.87
2019-05-03T13:56:56.135Z,19.97
2019-05-03T13:59:24.631Z,15.70
2019-05-03T14:01:54.403Z,17.40
2019-05-03T14:04:21.045Z,17.07
2019-05-03T14:06:47.650Z,14.43
2019-05-03T14:09:14.692Z,16.73
2019-05-03T14:11:41.470Z,18.47
2019-05-03T14:14:08.189Z,17.63
2019-05-03T14:16:34.814Z,16.83
2019-05-03T14:19:05.159Z,16.10
2019-05-03T14:21:36.418Z,17.60
2019-05-03T14:24:09.876Z,16.93
2019-05-03T14:26:39.598Z,16.77
2019-05-03T14:29:07.906Z,14.87
2019-05-03T14:31:37.629Z,16.97
2019-05-03T14:34:09.161Z,17.33
2019-05-03T14:36:40.290Z,16.67
2019-05-03T14:39:10.004Z,15.63
2019-05-03T14:41:37.101Z,15.70
2019-05-03T14:44:05.003Z,14.40
2019-05-03T14:46:33.253Z,14.83
2019-05-03T14:49:00.378Z,14.87
2019-05-03T14:51:27.010Z,15.67
2019-05-03T14:53:54.274Z,13.37
2019-05-03T14:56:25.381Z,13.70
2019-05-03T14:58:55.927Z,11.73
2019-05-03T15:01:42.587Z,12.10
2019-05-03T15:04:09.302Z,11.40
2019-05-03T15:06:43.243Z,11.07
2019-05-03T15:09:10.248Z,11.53
2019-05-03T15:11:36.895Z,11.43
2019-05-03T15:14:05.507Z,13.37
2019-05-03T15:16:34.279Z,11.13
2019-05-03T15:19:00.780Z,10.83
2019-05-03T15:21:27.413Z,10.83
2019-05-03T15:23:54.881Z,11.23
2019-05-03T15:26:21.657Z,11.67
2019-05-03T15:28:48.280Z,10.63
2019-05-03T15:31:15.016Z,10.27
2019-05-03T15:33:41.851Z,9.87
2019-05-03T15:36:11.559Z,9.30
2019-05-03T15:38:38.301Z,8.63
2019-05-03T15:41:05.555Z,9.03
2019-05-03T15:43:35.221Z,9.33
2019-05-03T15:46:20.836Z,10.37
2019-05-03T15:48:52.166Z,10.30
2019-05-03T15:51:18.934Z,9.73
2019-05-03T15:53:45.903Z,8.57
2019-05-03T15:56:14.517Z,9.47
2019-05-03T15:58:42.163Z,16.07
2019-05-03T16:01:09.787Z,8.80
2019-05-03T16:03:36.439Z,9.60
2019-05-03T16:06:04.925Z,9.13
2019-05-03T16:08:32.233Z,8.97
2019-05-03T16:10:59.123Z,10.23
2019-05-03T16:13:26.217Z,9.60
2019-05-03T16:15:55.032Z,9.10
2019-05-03T16:18:21.536Z,9.03
2019-05-03T16:20:48.207Z,9.17
2019-05-03T16:23:15.386Z,10.23
2019-05-03T16:25:42.413Z,8.97
2019-05-03T16:28:15.248Z,8.67
2019-05-03T16:30:45.458Z,9.13
2019-05-03T16:33:26.217Z,9.77
2019-05-03T16:35:42.087Z,9.50
2019-05-03T16:38:08.835Z,8.47
2019-05-03T16:40:35.749Z,8.30
2019-05-03T16:43:02.885Z,8.10
2019-05-03T16:45:30.002Z,8.13
2019-05-03T16:47:56.611Z,8.47
2019-05-03T16:50:25.132Z,8.57
2019-05-03T16:52:51.789Z,8.53
2019-05-03T16:55:18.454Z,8.43
2019-05-03T16:57:45.197Z,9.47
2019-05-03T17:00:15.331Z,10.83
2019-05-03T17:02:41.986Z,8.90
2019-05-03T17:05:22.571Z,9.00
2019-05-03T17:08:00.367Z,8.63
2019-05-03T17:10:32.179Z,9.73
2019-05-03T17:12:59.042Z,9.30
2019-05-03T17:15:25.744Z,9.70
2019-05-03T17:17:52.388Z,9.23
2019-05-03T17:20:19.016Z,9.77
2019-05-03T17:22:45.825Z,10.60
2019-05-03T17:25:15.011Z,10.73
2019-05-03T17:27:42.003Z,12.33
2019-05-03T17:30:09.477Z,10.13
2019-05-03T17:32:36.400Z,9.90
2019-05-03T17:35:06.230Z,9.50
2019-05-03T17:37:34.691Z,9.63
2019-05-03T17:40:09.826Z,9.47
2019-05-03T17:42:57.222Z,10.07
2019-05-03T17:45:32.174Z,10.13
2019-05-03T17:48:04.485Z,8.93
2019-05-03T17:50:34.812Z,8.90
2019-05-03T17:53:25.384Z,10.00
2019-05-03T17:56:05.667Z,10.53
2019-05-03T17:58:46.446Z,9.43
2019-05-03T18:01:30.054Z,10.20
2019-05-03T18:04:06.695Z,9.67
2019-05-03T18:06:29.115Z,10.47
2019-05-03T18:09:14.867Z,10.77
2019-05-03T18:11:45.093Z,9.30
2019-05-03T18:14:11.848Z,9.27
2019-05-03T18:16:38.575Z,9.63
2019-05-03T18:19:07.904Z,10.57
2019-05-03T18:21:34.710Z,11.53
2019-05-03T18:24:01.602Z,10.10
2019-05-03T18:26:28.233Z,9.70
2019-05-03T18:28:55.434Z,10.27
2019-05-03T18:31:25.037Z,11.40
2019-05-03T18:33:54.712Z,10.43
2019-05-03T18:36:21.557Z,10.93
2019-05-03T18:38:48.303Z,10.80
2019-05-03T18:41:16.026Z,11.07
2019-05-03T18:43:54.487Z,9.77
2019-05-03T18:46:41.645Z,10.50
2019-05-03T18:49:08.649Z,12.27
2019-05-03T18:51:35.499Z,11.90
2019-05-03T18:54:04.796Z,12.27
2019-05-03T18:56:31.330Z,11.53
2019-05-03T18:58:58.168Z,12.80
2019-05-03T19:01:25.308Z,12.07
2019-05-03T19:03:55.461Z,12.17
2019-05-03T19:06:22.490Z,10.53
2019-05-03T19:08:51.324Z,10.87
2019-05-03T19:11:24.590Z,11.97
2019-05-03T19:13:56.740Z,12.53
2019-05-03T19:16:25.836Z,12.10
2019-05-03T19:18:52.745Z,12.90
2019-05-03T19:21:19.391Z,10.87
2019-05-03T19:23:46.096Z,12.20
2019-05-03T19:26:14.431Z,12.10
2019-05-03T19:28:41.371Z,12.40
2019-05-03T19:31:08.318Z,12.07
2019-05-03T19:33:37.228Z,12.57
2019-05-03T19:36:18.216Z,12.37
2019-05-03T19:38:44.981Z,11.87
2019-05-03T19:41:11.711Z,13.33
2019-05-03T19:43:38.555Z,12.33
2019-05-03T19:46:07.364Z,12.57
2019-05-03T19:48:35.587Z,14.03
2019-05-03T19:51:03.084Z,15.10
2019-05-03T19:53:31.916Z,13.53
2019-05-03T19:55:58.633Z,13.20
2019-05-03T19:58:25.448Z,12.70
2019-05-03T20:00:59.986Z,13.03
2019-05-03T20:03:35.235Z,13.47
2019-05-03T20:06:04.911Z,11.50
2019-05-03T20:08:35.209Z,13.57
2019-05-03T20:11:14.633Z,12.90
2019-05-03T20:13:45.121Z,12.93
2019-05-03T20:16:15.100Z,13.83
2019-05-03T20:18:41.850Z,14.30
2019-05-03T20:21:08.582Z,13.50
2019-05-03T20:23:35.346Z,14.63
2019-05-03T20:26:02.371Z,13.20
2019-05-03T20:28:29.697Z,14.00
2019-05-03T20:30:56.942Z,13.67
2019-05-03T20:33:24.597Z,14.53
2019-05-03T20:35:53.791Z,14.67
2019-05-03T20:38:20.219Z,14.77
2019-05-03T20:40:48.038Z,14.73
2019-05-03T20:43:25.834Z,17.77
2019-05-03T20:45:54.898Z,17.40
2019-05-03T20:48:22.240Z,16.13
2019-05-03T20:50:49.080Z,16.30
2019-05-03T20:53:15.716Z,17.17
2019-05-03T20:55:45.097Z,16.77
2019-05-03T20:58:12.036Z,16.70
2019-05-03T21:00:38.844Z,16.83
2019-05-03T21:03:05.368Z,16.60
2019-05-03T21:05:34.628Z,18.10
2019-05-03T21:08:00.501Z,17.07
2019-05-03T21:10:33.540Z,18.63
2019-05-03T21:13:00.280Z,19.40
2019-05-03T21:15:35.483Z,20.37
2019-05-03T21:18:04.936Z,20.67
2019-05-03T21:20:36.278Z,52.80
2019-05-03T21:23:05.488Z,223.77
2019-05-03T21:26:02.181Z,128.13
2019-05-03T21:28:06.942Z,71.13
2019-05-03T21:30:35.240Z,475.30
2019-05-03T21:33:02.078Z,538.23
2019-05-03T21:35:40.809Z,314.27
2019-05-03T21:37:57.526Z,172.17
2019-05-03T21:40:24.477Z,66.57
2019-05-03T21:42:51.105Z,34.30
2019-05-03T21:45:19.638Z,28.07
2019-05-03T21:47:48.242Z,23.57
2019-05-03T21:50:17.296Z,21.20
2019-05-03T21:52:45.671Z,23.37
2019-05-03T21:55:14.361Z,23.03
2019-05-03T21:57:41.631Z,21.47
2019-05-03T22:00:10.340Z,23.60
2019-05-03T22:02:39.232Z,25.47
2019-05-03T22:05:06.720Z,24.13
2019-05-03T22:07:34.968Z,24.90
2019-05-03T22:10:02.448Z,24.83
2019-05-03T22:12:29.351Z,24.07
2019-05-03T22:15:07.683Z,24.83
2019-05-03T22:17:38.932Z,23.00
2019-05-03T22:20:16.918Z,17.93
2019-05-03T22:22:46.606Z,16.20
2019-05-03T22:25:15.173Z,13.23
2019-05-03T22:27:45.554Z,13.27
2019-05-03T22:30:12.624Z,12.13
2019-05-03T22:32:39.375Z,12.47
2019-05-03T22:35:07.250Z,13.40
2019-05-03T22:37:35.429Z,14.57
2019-05-03T22:40:05.352Z,14.33
2019-05-03T22:42:32.218Z,14.77
2019-05-03T22:45:00.025Z,14.20
2019-05-03T22:47:29.121Z,15.57
2019-05-03T22:49:56.273Z,16.73
2019-05-03T22:52:23.395Z,17.67
2019-05-03T22:54:50.695Z,20.17
2019-05-03T22:57:17.817Z,23.20
2019-05-03T22:59:45.039Z,24.10
2019-05-03T23:02:11.721Z,25.33
2019-05-03T23:04:38.922Z,28.30
2019-05-03T23:07:08.545Z,26.57
2019-05-03T23:09:35.384Z,25.80
2019-05-03T23:12:02.041Z,26.00
2019-05-03T23:14:29.108Z,23.10
2019-05-03T23:16:55.714Z,22.70
2019-05-03T23:19:22.396Z,21.97
2019-05-03T23:21:54.979Z,21.10
2019-05-03T23:24:21.848Z,18.93
2019-05-03T23:26:48.638Z,15.73
2019-05-03T23:29:15.896Z,13.23
2019-05-03T23:31:44.718Z,9.83
2019-05-03T23:34:11.246Z,10.07
2019-05-03T23:36:37.863Z,10.33
2019-05-03T23:39:05.134Z,10.97
2019-05-03T23:41:32.030Z,11.17
2019-05-03T23:43:58.881Z,11.47
2019-05-03T23:46:27.552Z,10.53
2019-05-03T23:48:54.179Z,10.10
2019-05-03T23:51:39.355Z,12.93
2019-05-03T23:54:06.492Z,11.43
2019-05-03T23:56:35.077Z,11.87
2019-05-03T23:59:01.932Z,11.10
